createdAt,value
2019-04-04T00:01:20.544Z,41.13
2019-04-04T00:03:51.522Z,41.13
2019-04-04T00:06:19.773Z,41.11
2019-04-04T00:08:48.578Z,41.24
2019-04-04T00:11:17.320Z,41.42
2019-04-04T00:13:46.072Z,41.34
2019-04-04T00:16:16.079Z,41.48
2019-04-04T00:18:45.373Z,41.43
2019-04-04T00:21:14.123Z,41.37
2019-04-04T00:23:42.938Z,41.89
2019-04-04T00:26:11.978Z,41.51
2019-04-04T00:28:40.718Z,41.50
2019-04-04T00:31:09.523Z,41.42
2019-04-04T00:33:38.278Z,41.45
2019-04-04T00:36:07.026Z,41.46
2019-04-04T00:38:37.719Z,41.45
2019-04-04T00:41:06.294Z,41.29
2019-04-04T00:43:35.038Z,41.37
2019-04-04T00:46:03.813Z,41.27
2019-04-04T00:48:34.271Z,41.29
2019-04-04T00:51:03.058Z,41.11
2019-04-04T00:53:32.753Z,40.97
2019-04-04T00:56:01.578Z,41.07
2019-04-04T00:58:30.323Z,40.90
2019-04-04T01:00:59.160Z,40.95
2019-04-04T01:03:28.110Z,41.06
2019-04-04T01:05:58.383Z,41.01
2019-04-04T01:08:27.178Z,41.08
2019-04-04T01:10:55.914Z,41.06
2019-04-04T01:13:27.582Z,40.94
2019-04-04T01:15:55.149Z,40.90
2019-04-04T01:18:23.894Z,41.06
2019-04-04T01:20:52.683Z,41.09
2019-04-04T01:23:21.439Z,41.19
2019-04-04T01:25:50.178Z,41.14
2019-04-04T01:28:18.943Z,41.21
2019-04-04T01:30:47.688Z,41.28
2019-04-04T01:33:19.675Z,41.20
2019-04-04T01:35:46.958Z,41.19
2019-04-04T01:38:15.693Z,41.14
2019-04-04T01:40:44.458Z,41.27
2019-04-04T01:43:13.218Z,41.09
2019-04-04T01:45:43.721Z,41.32
2019-04-04T01:48:12.484Z,40.99
2019-04-04T01:50:41.209Z,40.83
2019-04-04T01:53:09.985Z,41.08
2019-04-04T01:55:38.747Z,41.12
2019-04-04T01:58:08.018Z,40.71
2019-04-04T02:00:38.012Z,40.54
2019-04-04T02:03:06.770Z,40.28
2019-04-04T02:05:35.546Z,40.28
2019-04-04T02:08:04.612Z,39.99
2019-04-04T02:10:34.955Z,39.83
2019-04-04T02:13:04.248Z,39.55
2019-04-04T02:15:33.054Z,39.38
2019-04-04T02:18:01.887Z,39.38
2019-04-04T02:20:30.608Z,39.37
2019-04-04T02:23:01.175Z,39.33
2019-04-04T02:25:29.906Z,39.33
2019-04-04T02:27:58.726Z,39.27
2019-04-04T02:30:27.467Z,39.34
2019-04-04T02:32:59.438Z,39.62
2019-04-04T02:35:26.767Z,39.84
2019-04-04T02:37:56.176Z,39.91
2019-04-04T02:40:25.228Z,40.05
2019-04-04T02:42:55.394Z,40.09
2019-04-04T02:45:24.450Z,40.12
2019-04-04T02:47:53.247Z,40.39
2019-04-04T02:50:22.028Z,40.40
2019-04-04T02:52:50.826Z,40.59
2019-04-04T02:55:19.590Z,40.89
2019-04-04T02:57:48.411Z,40.66
2019-04-04T03:00:17.771Z,40.89
2019-04-04T03:02:46.585Z,40.86
2019-04-04T03:05:18.752Z,40.63
2019-04-04T03:07:45.867Z,40.72
2019-04-04T03:10:16.490Z,40.82
2019-04-04T03:12:45.149Z,40.70
2019-04-04T03:15:13.911Z,40.75
2019-04-04T03:17:42.764Z,40.65
2019-04-04T03:20:16.265Z,40.61
2019-04-04T03:22:42.028Z,40.75
2019-04-04T03:25:14.440Z,40.30
2019-04-04T03:27:41.331Z,40.47
2019-04-04T03:30:14.602Z,40.26
2019-04-04T03:32:41.071Z,39.96
2019-04-04T03:35:09.856Z,40.24
2019-04-04T03:37:40.956Z,40.00
2019-04-04T03:40:09.491Z,40.12
2019-04-04T03:42:38.310Z,39.88
2019-04-04T03:45:07.550Z,39.71
2019-04-04T03:47:36.316Z,39.75
2019-04-04T03:50:06.831Z,39.83
2019-04-04T03:52:35.630Z,39.74
2019-04-04T03:55:06.772Z,39.74
2019-04-04T03:57:35.670Z,39.79
2019-04-04T04:00:07.574Z,40.21
2019-04-04T04:02:36.551Z,39.96
2019-04-04T04:05:08.229Z,39.88
2019-04-04T04:07:37.011Z,39.97
2019-04-04T04:10:06.812Z,39.82
2019-04-04T04:12:35.636Z,39.84
2019-04-04T04:15:05.640Z,40.22
2019-04-04T04:17:36.246Z,39.97
2019-04-04T04:20:06.056Z,40.13
2019-04-04T04:22:34.809Z,40.03
2019-04-04T04:25:03.819Z,40.15
2019-04-04T04:27:32.770Z,40.01
2019-04-04T04:30:06.125Z,40.14
2019-04-04T04:32:32.207Z,40.14
2019-04-04T04:35:00.998Z,40.20
2019-04-04T04:37:29.809Z,40.19
2019-04-04T04:39:58.591Z,40.23
2019-04-04T04:42:27.567Z,40.36
2019-04-04T04:44:56.410Z,40.52
2019-04-04T04:47:25.169Z,40.62
2019-04-04T04:49:55.502Z,40.65
2019-04-04T04:52:24.468Z,40.68
2019-04-04T04:54:54.803Z,40.40
2019-04-04T04:57:29.782Z,40.51
2019-04-04T04:59:54.312Z,40.58
2019-04-04T05:02:23.083Z,40.45
2019-04-04T05:04:51.867Z,40.26
2019-04-04T05:07:20.611Z,40.44
2019-04-04T05:09:49.468Z,40.20
2019-04-04T05:12:18.245Z,40.39
2019-04-04T05:14:46.988Z,40.24
2019-04-04T05:17:15.811Z,40.24
2019-04-04T05:19:45.218Z,40.15
2019-04-04T05:22:14.049Z,39.98
2019-04-04T05:24:42.828Z,39.82
2019-04-04T05:27:11.596Z,39.98
2019-04-04T05:29:40.397Z,39.94
2019-04-04T05:32:09.170Z,39.86
2019-04-04T05:34:38.035Z,39.69
2019-04-04T05:37:07.299Z,39.55
2019-04-04T05:39:36.790Z,39.51
2019-04-04T05:42:05.679Z,39.85
2019-04-04T05:44:34.467Z,39.80
2019-04-04T05:47:03.229Z,39.80
2019-04-04T05:49:32.017Z,39.73
2019-04-04T05:52:00.830Z,39.65
2019-04-04T05:54:29.630Z,39.70
2019-04-04T05:56:58.389Z,39.52
2019-04-04T05:59:27.229Z,39.48
2019-04-04T06:01:55.969Z,39.53
2019-04-04T06:04:24.849Z,39.36
2019-04-04T06:06:55.600Z,39.36
2019-04-04T06:09:24.149Z,39.51
2019-04-04T06:11:53.761Z,39.38
2019-04-04T06:14:22.735Z,39.28
2019-04-04T06:16:51.529Z,39.08
2019-04-04T06:19:20.289Z,39.23
2019-04-04T06:21:49.898Z,38.93
2019-04-04T06:24:19.354Z,39.33
2019-04-04T06:26:48.115Z,39.20
2019-04-04T06:29:17.347Z,38.69
2019-04-04T06:31:46.851Z,38.39
2019-04-04T06:34:15.629Z,38.32
2019-04-04T06:36:44.409Z,38.18
2019-04-04T06:39:13.171Z,38.30
2019-04-04T06:41:41.989Z,37.89
2019-04-04T06:44:12.757Z,37.98
2019-04-04T06:46:41.230Z,37.23
2019-04-04T06:49:10.022Z,37.61
2019-04-04T06:51:38.791Z,37.73
2019-04-04T06:54:07.574Z,37.28
2019-04-04T06:56:36.352Z,37.91
2019-04-04T06:59:05.123Z,37.46
2019-04-04T07:01:33.892Z,37.87
2019-04-04T07:04:02.653Z,36.93
2019-04-04T07:06:31.413Z,37.07
2019-04-04T07:09:00.152Z,37.01
2019-04-04T07:11:28.955Z,37.26
2019-04-04T07:13:59.186Z,37.02
2019-04-04T07:16:28.192Z,36.96
2019-04-04T07:18:56.952Z,37.16
2019-04-04T07:21:25.702Z,36.77
2019-04-04T07:23:54.513Z,37.66
2019-04-04T07:26:23.244Z,36.73
2019-04-04T07:28:53.974Z,36.96
2019-04-04T07:31:22.493Z,37.42
2019-04-04T07:33:51.252Z,37.48
2019-04-04T07:36:20.828Z,37.97
2019-04-04T07:38:49.684Z,37.14
2019-04-04T07:41:18.404Z,37.36
2019-04-04T07:43:47.192Z,36.54
2019-04-04T07:46:17.157Z,36.77
2019-04-04T07:48:46.132Z,36.94
2019-04-04T07:51:14.874Z,36.20
2019-04-04T07:53:43.612Z,36.38
2019-04-04T07:56:14.257Z,35.82
2019-04-04T07:58:42.826Z,36.56
2019-04-04T08:01:11.632Z,36.54
2019-04-04T08:03:40.415Z,36.59
2019-04-04T08:06:09.172Z,36.15
2019-04-04T08:08:37.990Z,35.93
2019-04-04T08:11:06.772Z,37.87
2019-04-04T08:13:35.592Z,35.95
2019-04-04T08:16:05.232Z,36.25
2019-04-04T08:18:33.962Z,36.61
2019-04-04T08:21:05.529Z,36.33
2019-04-04T08:23:33.193Z,35.49
2019-04-04T08:26:02.293Z,35.74
2019-04-04T08:28:31.045Z,35.49
2019-04-04T08:30:59.772Z,35.67
2019-04-04T08:33:28.512Z,35.31
2019-04-04T08:36:05.942Z,36.24
2019-04-04T08:38:27.773Z,35.33
2019-04-04T08:40:56.533Z,35.39
2019-04-04T08:43:25.272Z,36.50
2019-04-04T08:45:54.073Z,35.50
2019-04-04T08:48:22.812Z,35.00
2019-04-04T08:50:51.592Z,34.88
2019-04-04T08:53:20.352Z,35.04
2019-04-04T08:55:49.173Z,34.99
2019-04-04T08:58:17.912Z,34.53
2019-04-04T09:00:46.653Z,34.39
2019-04-04T09:03:15.432Z,33.75
2019-04-04T09:05:44.233Z,33.95
2019-04-04T09:08:13.013Z,33.40
2019-04-04T09:10:41.732Z,33.96
2019-04-04T09:13:10.592Z,33.85
2019-04-04T09:15:39.372Z,33.03
2019-04-04T09:18:08.132Z,32.68
2019-04-04T09:20:36.933Z,32.95
2019-04-04T09:23:05.692Z,33.60
2019-04-04T09:25:34.432Z,33.44
2019-04-04T09:28:03.235Z,33.91
2019-04-04T09:30:31.982Z,33.08
2019-04-04T09:33:00.773Z,31.95
2019-04-04T09:35:29.533Z,31.97
2019-04-04T09:37:58.293Z,32.30
2019-04-04T09:40:27.073Z,32.57
2019-04-04T09:42:55.803Z,31.24
2019-04-04T09:45:24.612Z,31.33
2019-04-04T09:47:53.352Z,31.67
2019-04-04T09:50:22.073Z,32.04
2019-04-04T09:52:50.893Z,31.65
2019-04-04T09:55:19.717Z,30.68
2019-04-04T09:57:48.532Z,30.81
2019-04-04T10:00:20.936Z,30.78
2019-04-04T10:02:49.675Z,29.90
2019-04-04T10:05:18.693Z,30.00
2019-04-04T10:07:47.432Z,30.38
2019-04-04T10:10:16.993Z,29.08
2019-04-04T10:12:45.734Z,29.36
2019-04-04T10:15:15.143Z,30.46
2019-04-04T10:17:44.412Z,29.59
2019-04-04T10:20:13.262Z,29.13
2019-04-04T10:22:42.054Z,28.78
2019-04-04T10:25:10.973Z,29.17
2019-04-04T10:27:39.773Z,29.34
2019-04-04T10:30:10.292Z,29.27
2019-04-04T10:32:39.263Z,28.87
2019-04-04T10:35:08.612Z,29.01
2019-04-04T10:37:37.414Z,29.23
2019-04-04T10:40:07.814Z,29.14
2019-04-04T10:42:36.592Z,27.69
2019-04-04T10:45:07.412Z,28.06
2019-04-04T10:47:36.212Z,29.45
2019-04-04T10:50:09.673Z,28.61
2019-04-04T10:52:38.517Z,28.65
2019-04-04T10:55:08.052Z,27.35
2019-04-04T10:57:36.793Z,28.67
2019-04-04T11:00:09.756Z,27.83
2019-04-04T11:02:38.512Z,27.54
2019-04-04T11:05:07.513Z,27.68
2019-04-04T11:07:36.353Z,28.30
2019-04-04T11:10:06.735Z,27.76
2019-04-04T11:12:35.494Z,28.32
2019-04-04T11:15:06.234Z,27.41
2019-04-04T11:17:35.032Z,28.09
2019-04-04T11:20:05.213Z,28.67
2019-04-04T11:22:33.953Z,28.20
2019-04-04T11:25:02.712Z,28.03
2019-04-04T11:27:31.481Z,28.29
2019-04-04T11:30:00.234Z,27.47
2019-04-04T11:32:28.992Z,27.75
2019-04-04T11:34:57.793Z,26.74
2019-04-04T11:37:26.573Z,27.46
2019-04-04T11:39:55.418Z,27.46
2019-04-04T11:42:24.193Z,27.16
2019-04-04T11:44:52.936Z,27.66
2019-04-04T11:47:21.712Z,28.50
2019-04-04T11:49:50.561Z,26.71
2019-04-04T11:52:19.340Z,27.85
2019-04-04T11:54:49.682Z,28.22
2019-04-04T11:57:18.420Z,25.87
2019-04-04T11:59:47.212Z,25.88
2019-04-04T12:02:15.961Z,25.28
2019-04-04T12:04:44.692Z,25.89
2019-04-04T12:07:13.509Z,26.13
2019-04-04T12:09:42.232Z,26.70
2019-04-04T12:12:11.015Z,26.43
2019-04-04T12:14:39.752Z,26.94
2019-04-04T12:17:08.517Z,25.44
2019-04-04T12:19:37.252Z,25.12
2019-04-04T12:22:05.981Z,25.33
2019-04-04T12:24:34.773Z,26.33
2019-04-04T12:27:03.514Z,26.17
2019-04-04T12:29:32.273Z,25.15
2019-04-04T12:32:01.053Z,25.58
2019-04-04T12:34:29.794Z,25.40
2019-04-04T12:36:58.595Z,25.50
2019-04-04T12:39:27.332Z,26.31
2019-04-04T12:41:56.082Z,27.44
2019-04-04T12:44:24.832Z,26.64
2019-04-04T12:46:53.574Z,27.26
2019-04-04T12:49:22.372Z,26.10
2019-04-04T12:51:51.132Z,26.50
2019-04-04T12:54:19.892Z,27.07
2019-04-04T12:56:48.696Z,27.69
2019-04-04T12:59:17.513Z,27.03
2019-04-04T13:01:46.293Z,26.03
2019-04-04T13:04:15.034Z,26.62
2019-04-04T13:06:43.813Z,24.80
2019-04-04T13:09:12.593Z,24.68
2019-04-04T13:11:41.373Z,25.65
2019-04-04T13:14:10.156Z,25.56
2019-04-04T13:16:38.900Z,26.07
2019-04-04T13:19:07.745Z,24.69
2019-04-04T13:21:36.492Z,23.90
2019-04-04T13:24:05.513Z,23.14
2019-04-04T13:26:34.292Z,23.33
2019-04-04T13:29:03.075Z,23.95
2019-04-04T13:31:31.892Z,24.94
2019-04-04T13:34:00.637Z,25.15
2019-04-04T13:36:29.396Z,24.71
2019-04-04T13:38:58.180Z,24.84
2019-04-04T13:41:26.933Z,25.89
2019-04-04T13:43:55.742Z,25.89
2019-04-04T13:46:25.883Z,25.40
2019-04-04T13:48:54.934Z,24.52
2019-04-04T13:51:25.500Z,24.61
2019-04-04T13:53:54.472Z,24.74
2019-04-04T13:56:23.272Z,25.20
2019-04-04T13:58:52.053Z,25.66
2019-04-04T14:01:20.795Z,25.22
2019-04-04T14:03:49.594Z,24.89
2019-04-04T14:06:18.349Z,25.06
2019-04-04T14:08:47.113Z,25.19
2019-04-04T14:11:15.913Z,24.60
2019-04-04T14:13:44.647Z,25.54
2019-04-04T14:16:13.394Z,25.27
2019-04-04T14:18:44.484Z,25.80
2019-04-04T14:21:12.714Z,25.54
2019-04-04T14:23:45.168Z,25.65
2019-04-04T14:26:12.932Z,24.86
2019-04-04T14:28:41.652Z,24.31
2019-04-04T14:31:12.430Z,24.50
2019-04-04T14:33:41.474Z,24.87
2019-04-04T14:36:10.232Z,24.71
2019-04-04T14:38:38.954Z,24.26
2019-04-04T14:41:11.538Z,23.95
2019-04-04T14:43:39.640Z,24.16
2019-04-04T14:46:08.414Z,23.30
2019-04-04T14:48:38.053Z,25.25
2019-04-04T14:51:06.893Z,25.12
2019-04-04T14:53:35.672Z,25.18
2019-04-04T14:56:04.513Z,25.34
2019-04-04T14:58:33.273Z,25.65
2019-04-04T15:01:02.258Z,24.51
2019-04-04T15:03:31.040Z,24.67
2019-04-04T15:05:59.813Z,24.44
2019-04-04T15:08:28.554Z,25.48
2019-04-04T15:10:57.461Z,25.68
2019-04-04T15:13:26.256Z,25.51
2019-04-04T15:16:13.039Z,25.77
2019-04-04T15:18:41.894Z,25.24
2019-04-04T15:21:11.052Z,25.36
2019-04-04T15:23:39.854Z,25.43
2019-04-04T15:26:09.887Z,25.70
2019-04-04T15:28:38.767Z,25.92
2019-04-04T15:31:07.796Z,26.27
2019-04-04T15:33:36.553Z,25.92
2019-04-04T15:36:05.278Z,25.50
2019-04-04T15:38:35.259Z,25.48
2019-04-04T15:41:04.095Z,25.05
2019-04-04T15:43:32.813Z,25.96
2019-04-04T15:46:01.613Z,25.93
2019-04-04T15:48:30.355Z,25.95
2019-04-04T15:50:59.114Z,26.64
2019-04-04T15:53:27.935Z,27.88
2019-04-04T15:55:56.667Z,27.37
2019-04-04T15:58:25.713Z,27.27
2019-04-04T16:00:54.683Z,28.10
2019-04-04T16:03:23.452Z,27.58
2019-04-04T16:05:52.194Z,27.64
2019-04-04T16:08:21.033Z,27.80
2019-04-04T16:10:49.769Z,28.03
2019-04-04T16:13:18.534Z,27.21
2019-04-04T16:15:47.350Z,27.35
2019-04-04T16:18:17.575Z,27.82
2019-04-04T16:20:46.314Z,28.39
2019-04-04T16:23:15.129Z,27.74
2019-04-04T16:25:43.912Z,27.91
2019-04-04T16:28:12.652Z,28.04
2019-04-04T16:30:41.492Z,28.62
2019-04-04T16:33:10.204Z,28.15
2019-04-04T16:35:38.994Z,28.65
2019-04-04T16:38:07.773Z,28.69
2019-04-04T16:40:36.553Z,29.21
2019-04-04T16:43:05.294Z,29.01
2019-04-04T16:45:34.113Z,28.96
2019-04-04T16:48:02.893Z,29.12
2019-04-04T16:50:31.732Z,29.31
2019-04-04T16:53:00.553Z,29.41
2019-04-04T16:55:29.293Z,29.63
2019-04-04T16:57:58.056Z,30.12
2019-04-04T17:00:27.574Z,29.87
2019-04-04T17:02:56.333Z,30.62
2019-04-04T17:05:25.193Z,30.13
2019-04-04T17:07:53.993Z,30.63
2019-04-04T17:10:22.734Z,30.79
2019-04-04T17:12:51.521Z,31.39
2019-04-04T17:15:21.894Z,31.22
2019-04-04T17:17:50.656Z,31.00
2019-04-04T17:20:20.887Z,30.95
2019-04-04T17:22:49.773Z,31.67
2019-04-04T17:25:18.615Z,31.42
2019-04-04T17:27:47.392Z,31.12
2019-04-04T17:30:17.852Z,31.25
2019-04-04T17:32:48.884Z,31.37
2019-04-04T17:35:17.194Z,31.46
2019-04-04T17:37:46.014Z,31.31
2019-04-04T17:40:16.137Z,31.80
2019-04-04T17:42:45.339Z,31.58
2019-04-04T17:45:15.392Z,31.82
2019-04-04T17:47:44.274Z,31.64
2019-04-04T17:50:15.489Z,32.13
2019-04-04T17:52:44.992Z,32.28
2019-04-04T17:55:14.452Z,32.25
2019-04-04T17:57:43.312Z,31.89
2019-04-04T18:00:14.633Z,32.05
2019-04-04T18:02:43.449Z,32.32
2019-04-04T18:05:12.632Z,32.40
2019-04-04T18:07:41.401Z,33.00
2019-04-04T18:10:11.113Z,32.61
2019-04-04T18:12:40.828Z,32.62
2019-04-04T18:15:10.093Z,32.38
2019-04-04T18:17:38.852Z,32.98
2019-04-04T18:20:08.988Z,32.61
2019-04-04T18:22:38.033Z,33.07
2019-04-04T18:25:07.834Z,32.62
2019-04-04T18:27:36.614Z,32.46
2019-04-04T18:30:08.334Z,32.68
2019-04-04T18:32:37.213Z,32.43
2019-04-04T18:35:07.672Z,32.46
2019-04-04T18:37:37.069Z,32.49
2019-04-04T18:40:08.392Z,32.74
2019-04-04T18:42:37.177Z,32.67
2019-04-04T18:45:07.613Z,32.94
2019-04-04T18:47:36.435Z,32.72
2019-04-04T18:50:06.994Z,32.93
2019-04-04T18:52:35.874Z,33.16
2019-04-04T18:55:18.685Z,32.69
2019-04-04T18:57:37.015Z,32.81
2019-04-04T19:00:09.113Z,33.07
2019-04-04T19:02:38.092Z,33.12
2019-04-04T19:05:07.673Z,33.45
2019-04-04T19:07:39.528Z,33.60
2019-04-04T19:10:09.000Z,33.91
2019-04-04T19:12:37.892Z,33.40
2019-04-04T19:15:07.815Z,33.83
2019-04-04T19:17:36.889Z,33.47
2019-04-04T19:20:10.417Z,33.75
2019-04-04T19:22:39.560Z,33.52
2019-04-04T19:25:09.812Z,33.71
2019-04-04T19:27:38.722Z,33.57
2019-04-04T19:30:09.073Z,33.69
2019-04-04T19:32:38.033Z,33.68
2019-04-04T19:35:08.272Z,33.86
2019-04-04T19:37:37.213Z,34.02
2019-04-04T19:40:09.133Z,34.10
2019-04-04T19:42:38.080Z,34.29
2019-04-04T19:45:08.614Z,34.28
2019-04-04T19:47:37.492Z,34.41
2019-04-04T19:50:10.932Z,34.59
2019-04-04T19:52:39.773Z,34.66
2019-04-04T19:55:09.353Z,34.81
2019-04-04T19:57:38.174Z,34.75
2019-04-04T20:00:09.013Z,35.01
2019-04-04T20:02:38.623Z,34.94
2019-04-04T20:05:08.461Z,35.13
2019-04-04T20:07:37.212Z,35.13
2019-04-04T20:10:07.296Z,35.06
2019-04-04T20:12:36.292Z,35.22
2019-04-04T20:15:08.313Z,35.18
2019-04-04T20:17:37.234Z,35.19
2019-04-04T20:20:07.993Z,35.16
2019-04-04T20:22:36.843Z,35.31
2019-04-04T20:25:09.060Z,35.47
2019-04-04T20:27:37.856Z,35.64
2019-04-04T20:30:09.033Z,35.44
2019-04-04T20:32:37.956Z,35.51
2019-04-04T20:35:08.353Z,35.64
2019-04-04T20:37:37.139Z,35.48
2019-04-04T20:40:06.953Z,35.33
2019-04-04T20:42:35.693Z,35.42
2019-04-04T20:45:05.792Z,35.67
2019-04-04T20:47:34.633Z,35.43
2019-04-04T20:50:04.400Z,35.57
2019-04-04T20:52:33.152Z,35.46
2019-04-04T20:55:01.952Z,35.43
2019-04-04T20:57:30.693Z,35.55
2019-04-04T20:59:59.419Z,35.39
2019-04-04T21:02:28.232Z,35.41
2019-04-04T21:04:56.993Z,35.24
2019-04-04T21:07:25.756Z,35.35
2019-04-04T21:09:54.573Z,35.42
2019-04-04T21:12:23.334Z,35.43
2019-04-04T21:14:52.073Z,35.32
2019-04-04T21:17:20.873Z,35.40
2019-04-04T21:19:49.635Z,35.29
2019-04-04T21:22:27.505Z,35.46
2019-04-04T21:24:48.933Z,35.40
2019-04-04T21:27:18.885Z,35.63
2019-04-04T21:29:47.812Z,35.56
2019-04-04T21:32:16.614Z,35.79
2019-04-04T21:34:45.353Z,35.76
2019-04-04T21:37:14.134Z,35.91
2019-04-04T21:39:42.953Z,35.87
2019-04-04T21:42:11.735Z,36.03
2019-04-04T21:44:40.495Z,36.18
2019-04-04T21:47:09.313Z,36.39
2019-04-04T21:49:38.072Z,36.38
2019-04-04T21:52:06.802Z,36.46
2019-04-04T21:54:35.634Z,36.55
2019-04-04T21:57:04.392Z,36.65
2019-04-04T21:59:33.133Z,36.86
2019-04-04T22:02:01.935Z,36.96
2019-04-04T22:04:30.693Z,37.01
2019-04-04T22:06:59.443Z,37.14
2019-04-04T22:09:28.273Z,37.18
2019-04-04T22:11:57.033Z,37.20
2019-04-04T22:14:25.794Z,37.19
2019-04-04T22:16:54.661Z,37.32
2019-04-04T22:19:23.434Z,37.47
2019-04-04T22:21:52.192Z,37.46
2019-04-04T22:24:22.421Z,37.48
2019-04-04T22:26:51.475Z,37.71
2019-04-04T22:29:20.253Z,37.64
2019-04-04T22:31:49.079Z,37.59
2019-04-04T22:34:17.834Z,37.74
2019-04-04T22:36:46.642Z,37.68
2019-04-04T22:39:15.513Z,37.81
2019-04-04T22:41:44.255Z,37.98
2019-04-04T22:44:13.667Z,37.92
2019-04-04T22:46:42.683Z,38.04
2019-04-04T22:49:11.748Z,38.19
2019-04-04T22:51:40.686Z,38.10
2019-04-04T22:54:09.728Z,38.19
2019-04-04T22:56:38.610Z,38.08
2019-04-04T22:59:07.628Z,38.06
2019-04-04T23:01:36.607Z,38.33
2019-04-04T23:04:05.648Z,38.36
2019-04-04T23:06:34.548Z,38.57
2019-04-04T23:09:04.569Z,38.52
2019-04-04T23:11:33.448Z,38.64
2019-04-04T23:14:02.449Z,38.68
2019-04-04T23:16:31.449Z,38.81
2019-04-04T23:19:00.348Z,38.83
2019-04-04T23:21:29.348Z,38.94
2019-04-04T23:23:58.388Z,39.08
2019-04-04T23:26:27.750Z,39.40
2019-04-04T23:28:56.729Z,39.51
2019-04-04T23:31:25.787Z,39.42
2019-04-04T23:33:54.767Z,39.43
2019-04-04T23:36:34.350Z,39.71
2019-04-04T23:38:54.551Z,39.77
2019-04-04T23:41:23.446Z,39.88
2019-04-04T23:43:52.427Z,39.52
2019-04-04T23:46:21.787Z,39.99
2019-04-04T23:48:50.836Z,40.01
2019-04-04T23:51:19.748Z,40.34
2019-04-04T23:53:48.748Z,40.29
2019-04-04T23:56:17.729Z,40.76
2019-04-04T23:58:46.732Z,40.58
